Time;durP1;ratioP1;P1;durP2;ratioP2;P2;SDS_P1;SDS_P2;PMS_P1;PMS_P2;Temp;Humidity;BMP_temperature;BMP_pressure;BME280_temperature;BME280_humidity;BME280_pressure;Samples;Min_cycle;Max_cycle;Signal;HPM_P1;HPM_P2
2022/05/26 00:00:26;;;;;;;33.87;4.10;;;13.00;99.90;;;;;;4995731;28;20649;-54
2022/05/26 00:02:52;;;;;;;32.87;4.30;;;13.00;99.90;;;;;;4995919;28;20182;-54
2022/05/26 00:05:18;;;;;;;29.93;4.00;;;13.00;99.90;;;;;;4996731;28;20179;-54
2022/05/26 00:07:44;;;;;;;39.27;4.70;;;13.20;99.90;;;;;;5004021;28;20569;-55
2022/05/26 00:10:09;;;;;;;36.50;5.47;;;13.00;99.90;;;;;;5001056;28;20261;-55
2022/05/26 00:12:35;;;;;;;31.03;3.70;;;13.10;99.90;;;;;;5013619;28;20217;-54
2022/05/26 00:15:01;;;;;;;27.92;4.65;;;13.10;99.90;;;;;;5013569;28;20704;-55
2022/05/26 00:17:28;;;;;;;39.80;4.70;;;13.10;99.90;;;;;;5013714;28;20575;-55
2022/05/26 00:19:54;;;;;;;28.47;4.10;;;13.10;99.90;;;;;;5013287;28;20240;-54
2022/05/26 00:22:20;;;;;;;24.27;3.83;;;13.10;99.90;;;;;;5007082;28;20554;-55
2022/05/26 00:24:46;;;;;;;32.20;4.70;;;13.00;99.90;;;;;;4995182;28;20193;-54
2022/05/26 00:27:12;;;;;;;29.57;5.10;;;13.10;99.90;;;;;;4999921;28;20261;-56
2022/05/26 00:29:39;;;;;;;29.38;5.13;;;13.00;99.90;;;;;;5003232;28;20202;-55
2022/05/26 00:32:06;;;;;;;25.67;4.68;;;13.00;99.90;;;;;;4995331;28;20183;-56
2022/05/26 00:34:32;;;;;;;36.77;4.57;;;13.00;99.90;;;;;;4994769;28;20305;-55
2022/05/26 00:36:58;;;;;;;40.20;4.82;;;12.90;99.90;;;;;;5008104;28;20271;-55
2022/05/26 00:39:25;;;;;;;33.00;4.57;;;12.90;99.90;;;;;;5013372;28;20183;-55
2022/05/26 00:42:01;;;;;;;26.93;4.13;;;12.90;99.90;;;;;;5013242;28;20540;-55
2022/05/26 00:44:28;;;;;;;23.03;4.30;;;12.90;99.90;;;;;;5013375;28;20178;-55
2022/05/26 00:47:11;;;;;;;31.40;4.67;;;12.90;99.90;;;;;;5012923;28;20183;-55
2022/05/26 00:49:42;;;;;;;25.57;4.63;;;12.80;99.90;;;;;;5012793;28;20198;-55
2022/05/26 00:52:14;;;;;;;34.17;3.67;;;12.80;99.90;;;;;;5012379;28;20183;-55
2022/05/26 00:54:41;;;;;;;22.77;4.00;;;12.80;99.90;;;;;;4994547;28;20223;-55
2022/05/26 00:57:19;;;;;;;29.83;4.10;;;12.70;99.90;;;;;;4995028;28;20183;-55
2022/05/26 01:00:16;;;;;;;25.77;3.83;;;12.70;99.90;;;;;;4994551;28;20246;-55
2022/05/26 01:03:06;;;;;;;32.17;4.80;;;12.80;99.90;;;;;;4983005;28;20270;-55
2022/05/26 01:05:44;;;;;;;23.10;4.57;;;12.70;99.90;;;;;;4993577;28;20187;-55
2022/05/26 01:08:33;;;;;;;22.80;4.53;;;12.50;99.90;;;;;;5003169;28;20178;-55
2022/05/26 01:10:59;;;;;;;20.90;3.40;;;12.70;99.90;;;;;;5000170;28;20179;-54
2022/05/26 01:13:25;;;;;;;27.03;3.60;;;12.70;99.90;;;;;;5012031;28;20193;-54
2022/05/26 01:16:05;;;;;;;28.90;4.57;;;12.70;99.90;;;;;;5012072;28;20271;-55
2022/05/26 01:18:44;;;;;;;31.10;4.13;;;12.70;99.90;;;;;;5012498;28;20170;-55
2022/05/26 01:21:31;;;;;;;27.40;3.83;;;12.70;99.90;;;;;;5012279;28;20272;-55
2022/05/26 01:24:17;;;;;;;30.50;4.47;;;12.70;99.90;;;;;;5011044;28;20186;-55
2022/05/26 01:27:04;;;;;;;34.80;4.67;;;12.70;99.90;;;;;;5012308;28;20653;-56
2022/05/26 01:29:45;;;;;;;25.60;4.13;;;12.70;99.90;;;;;;5012008;28;20649;-54
2022/05/26 01:32:45;;;;;;;27.77;3.73;;;12.70;99.90;;;;;;4996606;28;20328;-55
2022/05/26 01:35:14;;;;;;;22.33;3.47;;;12.80;99.90;;;;;;5006938;28;20218;-55
2022/05/26 01:38:16;;;;;;;25.27;4.03;;;12.70;99.90;;;;;;4993282;28;20186;-60
2022/05/26 01:41:20;;;;;;;23.60;3.40;;;12.70;99.90;;;;;;4992868;28;20529;-55
2022/05/26 01:43:52;;;;;;;26.53;3.97;;;12.70;99.90;;;;;;4992976;28;20194;-56
2022/05/26 01:46:20;;;;;;;24.20;3.83;;;12.70;99.90;;;;;;4992584;28;20194;-55
2022/05/26 01:49:04;;;;;;;28.23;3.87;;;12.70;99.90;;;;;;4992841;28;20202;-55
2022/05/26 01:51:36;;;;;;;33.97;5.07;;;12.70;99.90;;;;;;4992694;28;20206;-55
2022/05/26 01:54:38;;;;;;;33.33;4.10;;;12.70;99.90;;;;;;4992472;28;20207;-55
2022/05/26 01:57:22;;;;;;;31.40;3.83;;;12.70;99.90;;;;;;4957924;28;20202;-55
2022/05/26 01:59:53;;;;;;;34.57;4.47;;;12.70;99.90;;;;;;5002208;28;20175;-56
2022/05/26 02:02:28;;;;;;;29.17;3.77;;;12.60;99.90;;;;;;5010349;28;20637;-55
2022/05/26 02:05:04;;;;;;;19.97;3.03;;;12.60;99.90;;;;;;5011740;28;20174;-55
2022/05/26 02:07:50;;;;;;;29.93;3.70;;;12.70;99.90;;;;;;4996950;28;20206;-56
2022/05/26 02:10:20;;;;;;;26.60;3.77;;;12.60;99.90;;;;;;4993232;28;20210;-55
2022/05/26 02:13:05;;;;;;;24.53;3.53;;;12.70;99.90;;;;;;4994341;28;20183;-56
2022/05/26 02:15:47;;;;;;;25.27;3.80;;;12.70;99.90;;;;;;4998336;28;20238;-56
2022/05/26 02:18:18;;;;;;;30.13;3.90;;;12.60;99.90;;;;;;4991157;28;20179;-56
2022/05/26 02:21:11;;;;;;;36.87;4.37;;;12.70;99.90;;;;;;4991786;28;20325;-56
2022/05/26 02:23:45;;;;;;;24.80;3.27;;;12.70;99.90;;;;;;4985750;28;20188;-56
2022/05/26 02:26:11;;;;;;;30.07;3.57;;;12.70;99.90;;;;;;5010428;28;20409;-56
2022/05/26 02:31:24;;;;;;;21.70;3.30;;;12.60;99.90;;;;;;4999582;28;20206;-56
2022/05/26 02:33:57;;;;;;;17.87;3.53;;;12.70;99.90;;;;;;5000839;28;20175;-56
2022/05/26 02:36:25;;;;;;;38.30;4.07;;;12.70;99.90;;;;;;5003166;28;20634;-56
2022/05/26 02:38:50;;;;;;;35.30;4.00;;;12.70;99.90;;;;;;4992959;28;20202;-56
2022/05/26 02:41:16;;;;;;;29.17;4.40;;;12.70;99.90;;;;;;4991728;28;20634;-56
2022/05/26 02:43:42;;;;;;;24.97;4.87;;;12.80;99.90;;;;;;4991427;28;20206;-57
2022/05/26 02:46:24;;;;;;;29.43;4.30;;;12.80;99.90;;;;;;4991476;28;20199;-56
2022/05/26 02:49:31;;;;;;;27.73;4.47;;;12.90;99.90;;;;;;4991686;28;20190;-55
2022/05/26 02:52:03;;;;;;;29.83;4.38;;;12.90;99.90;;;;;;5005501;28;20182;-55
2022/05/26 02:54:46;;;;;;;36.00;4.63;;;13.00;99.90;;;;;;5010816;28;20292;-55
2022/05/26 02:57:38;;;;;;;17.53;3.57;;;13.00;99.90;;;;;;5009488;28;20166;-55
2022/05/26 03:00:19;;;;;;;27.37;4.60;;;13.00;99.90;;;;;;5009443;28;20322;-56
2022/05/26 03:03:23;;;;;;;28.47;4.30;;;13.00;99.90;;;;;;5010553;28;20173;-55
2022/05/26 03:06:04;;;;;;;39.40;4.97;;;13.00;99.90;;;;;;4950324;29;20184;-55
2022/05/26 03:08:33;;;;;;;36.70;4.23;;;13.00;99.90;;;;;;5003075;28;20492;-54
2022/05/26 03:11:08;;;;;;;34.45;4.93;;;13.00;99.90;;;;;;4991284;28;20179;-53
2022/05/26 03:13:35;;;;;;;37.90;5.07;;;13.00;99.90;;;;;;4990960;28;20171;-54
2022/05/26 03:16:02;;;;;;;26.07;4.57;;;13.00;99.90;;;;;;4990949;28;20210;-54
2022/05/26 03:18:28;;;;;;;31.87;5.17;;;13.00;99.90;;;;;;5001869;28;20185;-54
2022/05/26 03:20:53;;;;;;;42.53;4.67;;;13.10;99.90;;;;;;4990983;28;20219;-54
2022/05/26 03:23:19;;;;;;;32.70;4.63;;;13.10;99.90;;;;;;4990351;28;20194;-54
2022/05/26 03:25:52;;;;;;;22.73;4.13;;;13.10;99.90;;;;;;4990680;28;20182;-55
2022/05/26 03:28:18;;;;;;;31.00;4.43;;;13.10;99.90;;;;;;4990794;28;20198;-55
2022/05/26 03:30:44;;;;;;;46.10;5.03;;;13.10;99.90;;;;;;4994801;28;20183;-54
2022/05/26 03:33:09;;;;;;;28.27;3.95;;;13.10;99.90;;;;;;4994750;28;20181;-55
2022/05/26 03:41:04;;;;;;;30.43;4.17;;;13.10;99.90;;;;;;4994508;28;20680;-55
2022/05/26 03:43:36;;;;;;;29.80;3.50;;;13.10;99.90;;;;;;4994847;28;20178;-54
2022/05/26 03:46:02;;;;;;;27.77;4.17;;;13.10;99.90;;;;;;4994978;28;20468;-57
2022/05/26 03:48:29;;;;;;;26.80;3.70;;;13.20;99.90;;;;;;4994719;28;20209;-54
2022/05/26 03:50:55;;;;;;;22.85;3.88;;;13.20;99.90;;;;;;4995727;28;20176;-56
2022/05/26 03:53:20;;;;;;;23.03;3.83;;;13.20;99.90;;;;;;4994576;28;20179;-55
2022/05/26 03:55:46;;;;;;;37.60;4.03;;;13.30;99.90;;;;;;4994163;28;20222;-55
2022/05/26 03:58:12;;;;;;;38.63;4.97;;;13.40;99.90;;;;;;4995585;28;20536;-55
2022/05/26 04:00:38;;;;;;;23.95;4.22;;;13.30;99.90;;;;;;4994468;28;20268;-55
2022/05/26 04:03:04;;;;;;;33.80;5.50;;;13.20;99.90;;;;;;4994432;28;20237;-55
2022/05/26 04:05:30;;;;;;;25.48;4.15;;;13.40;99.90;;;;;;4994322;28;20815;-56
2022/05/26 04:07:56;;;;;;;31.42;3.80;;;13.40;99.90;;;;;;5009749;28;20175;-55
2022/05/26 04:10:22;;;;;;;30.57;4.03;;;13.50;99.90;;;;;;4996604;28;20175;-55
2022/05/26 04:12:48;;;;;;;30.20;3.80;;;13.50;99.90;;;;;;4998646;28;20531;-55
2022/05/26 04:15:15;;;;;;;27.17;3.55;;;13.50;99.90;;;;;;5007538;28;20230;-55
2022/05/26 04:17:41;;;;;;;19.08;3.53;;;13.50;99.90;;;;;;4994678;28;20171;-55
2022/05/26 04:20:10;;;;;;;29.15;3.72;;;13.60;99.90;;;;;;4994200;28;20215;-56
2022/05/26 04:22:35;;;;;;;20.97;3.47;;;14.40;99.90;;;;;;5005436;28;20193;-55
2022/05/26 04:25:01;;;;;;;23.45;3.92;;;13.60;99.90;;;;;;4994616;28;20527;-55
2022/05/26 04:27:30;;;;;;;18.85;3.40;;;13.60;99.90;;;;;;4994012;28;20575;-55
2022/05/26 04:29:55;;;;;;;25.77;3.95;;;12.30;99.90;;;;;;5010234;28;20179;-55
2022/05/26 04:32:22;;;;;;;28.63;3.63;;;13.60;99.90;;;;;;4994125;28;20175;-55
2022/05/26 04:34:48;;;;;;;16.63;2.95;;;13.60;99.90;;;;;;4995369;28;20195;-55
2022/05/26 04:37:23;;;;;;;21.67;3.88;;;13.60;99.90;;;;;;5011556;28;20179;-59
2022/05/26 04:39:50;;;;;;;23.67;3.28;;;13.70;99.90;;;;;;5000289;28;20575;-55
2022/05/26 04:42:17;;;;;;;20.13;2.55;;;13.70;99.90;;;;;;4993318;28;20222;-55
2022/05/26 04:44:44;;;;;;;20.58;3.40;;;13.70;99.90;;;;;;4993704;28;20175;-54
2022/05/26 04:47:11;;;;;;;17.05;2.65;;;13.70;99.90;;;;;;4993608;28;20489;-54
2022/05/26 04:49:37;;;;;;;19.67;3.00;;;13.70;99.90;;;;;;4994706;28;20175;-55
2022/05/26 04:52:08;;;;;;;24.67;3.67;;;13.80;99.90;;;;;;4994485;28;20211;-55
2022/05/26 04:54:38;;;;;;;16.60;2.40;;;13.80;99.90;;;;;;4993398;28;20242;-57
2022/05/26 04:57:05;;;;;;;29.10;3.10;;;13.80;99.90;;;;;;4997488;28;20202;-55
2022/05/26 04:59:32;;;;;;;17.58;3.00;;;13.80;99.90;;;;;;5003335;28;20173;-55
2022/05/26 05:01:58;;;;;;;21.13;2.90;;;13.80;99.90;;;;;;5007792;28;20186;-56
2022/05/26 05:04:25;;;;;;;24.73;3.50;;;13.80;99.90;;;;;;4993364;28;20187;-56
2022/05/26 05:06:52;;;;;;;21.45;3.08;;;13.80;99.90;;;;;;4993345;28;20184;-56
2022/05/26 05:09:18;;;;;;;22.05;2.67;;;13.80;99.90;;;;;;4998212;28;20222;-55
2022/05/26 05:11:44;;;;;;;19.98;3.45;;;13.80;99.90;;;;;;5012690;28;20210;-56
2022/05/26 05:14:10;;;;;;;20.73;2.75;;;13.90;99.90;;;;;;5012486;28;20297;-56
2022/05/26 05:16:42;;;;;;;23.02;3.20;;;13.90;99.90;;;;;;5012347;28;20197;-56
2022/05/26 05:19:09;;;;;;;19.65;2.38;;;13.90;99.90;;;;;;5012559;28;20210;-56
2022/05/26 05:21:54;;;;;;;9.40;2.42;;;13.90;99.90;;;;;;4993716;28;20230;-56
2022/05/26 05:24:25;;;;;;;23.65;2.67;;;14.00;99.90;;;;;;4992104;28;20202;-56
2022/05/26 05:26:57;;;;;;;16.33;2.45;;;14.00;99.90;;;;;;5005267;28;20175;-56
2022/05/26 05:29:26;;;;;;;14.02;2.22;;;14.00;99.90;;;;;;4992676;28;20183;-56
2022/05/26 05:31:55;;;;;;;18.88;2.55;;;14.00;99.90;;;;;;4992790;28;20669;-55
2022/05/26 05:34:51;;;;;;;19.23;2.72;;;14.10;99.90;;;;;;4992858;28;20206;-55
2022/05/26 05:37:16;;;;;;;14.48;2.20;;;14.00;99.90;;;;;;4989901;28;20205;-56
2022/05/26 05:39:42;;;;;;;19.75;2.67;;;14.10;99.90;;;;;;5007787;28;20179;-56
2022/05/26 05:42:08;;;;;;;15.88;2.78;;;14.10;99.90;;;;;;4992548;28;20171;-55
2022/05/26 05:44:34;;;;;;;25.83;2.77;;;14.10;99.90;;;;;;4992546;28;20207;-55
2022/05/26 05:47:01;;;;;;;12.93;2.47;;;14.10;99.90;;;;;;4992454;28;20270;-56
2022/05/26 05:49:32;;;;;;;21.85;3.00;;;14.10;99.90;;;;;;4993024;28;20202;-55
2022/05/26 05:52:08;;;;;;;18.73;2.45;;;14.20;99.90;;;;;;5011889;28;20285;-55
2022/05/26 05:54:35;;;;;;;16.02;2.50;;;14.20;99.90;;;;;;5011370;28;20201;-56
2022/05/26 05:57:00;;;;;;;11.23;2.40;;;14.30;99.90;;;;;;5009692;28;20181;-55
2022/05/26 05:59:27;;;;;;;14.68;2.40;;;14.30;99.90;;;;;;4993178;28;20202;-55
2022/05/26 06:01:54;;;;;;;15.73;2.55;;;14.40;99.90;;;;;;4993399;28;20500;-55
2022/05/26 06:04:20;;;;;;;10.88;2.22;;;14.40;99.90;;;;;;4991944;28;20263;-56
2022/05/26 06:06:46;;;;;;;17.05;1.95;;;14.40;99.90;;;;;;5004889;28;20608;-55
2022/05/26 06:09:13;;;;;;;11.68;2.00;;;14.50;99.90;;;;;;4994566;28;20175;-55
2022/05/26 06:11:40;;;;;;;13.70;2.10;;;14.50;99.90;;;;;;5009467;28;20667;-55
2022/05/26 06:14:07;;;;;;;13.70;2.13;;;14.40;99.90;;;;;;5000178;28;20183;-55
2022/05/26 06:16:33;;;;;;;14.88;2.65;;;14.40;99.90;;;;;;4991986;28;20183;-56
2022/05/26 06:18:58;;;;;;;15.55;1.90;;;14.40;99.90;;;;;;4991726;28;20205;-56
2022/05/26 06:21:24;;;;;;;14.02;2.03;;;14.50;99.90;;;;;;5003897;28;20689;-55
2022/05/26 06:23:56;;;;;;;16.45;2.33;;;14.50;99.90;;;;;;4991422;28;20249;-56
2022/05/26 06:26:26;;;;;;;10.77;1.65;;;14.60;99.90;;;;;;4992783;28;20180;-55
2022/05/26 06:31:37;;;;;;;11.77;1.30;;;14.50;99.90;;;;;;5006507;28;20233;-55
2022/05/26 06:39:33;;;;;;;12.48;1.55;;;14.40;99.90;;;;;;5009336;28;20228;-60
2022/05/26 06:42:08;;;;;;;9.90;1.45;;;14.50;99.90;;;;;;5005915;28;20183;-60
2022/05/26 06:44:38;;;;;;;14.20;1.75;;;14.60;99.90;;;;;;4996411;28;20178;-60
2022/05/26 06:47:06;;;;;;;14.30;1.80;;;14.90;99.90;;;;;;5002534;28;20174;-61
2022/05/26 06:49:34;;;;;;;5.25;1.25;;;14.70;99.90;;;;;;5010331;28;20189;-60
2022/05/26 06:52:00;;;;;;;10.85;1.73;;;14.60;99.90;;;;;;5009188;28;20175;-58
2022/05/26 06:54:30;;;;;;;9.25;1.70;;;14.80;99.90;;;;;;5009312;28;20221;-58
2022/05/26 06:56:56;;;;;;;19.27;1.73;;;14.70;99.90;;;;;;5005780;28;20258;-58
2022/05/26 06:59:21;;;;;;;17.73;2.28;;;14.60;99.90;;;;;;5001829;28;20359;-60
2022/05/26 07:01:47;;;;;;;14.98;2.00;;;14.60;99.90;;;;;;5010883;28;20711;-59
2022/05/26 07:04:12;;;;;;;10.88;2.30;;;14.70;99.90;;;;;;5010006;28;20269;-58
2022/05/26 07:06:38;;;;;;;19.13;2.25;;;14.70;99.90;;;;;;5005328;28;20573;-59
2022/05/26 07:09:04;;;;;;;21.08;2.42;;;14.70;99.90;;;;;;4992735;28;20589;-59
2022/05/26 07:11:30;;;;;;;11.68;1.52;;;14.70;99.90;;;;;;4991097;28;20348;-59
2022/05/26 07:13:57;;;;;;;17.05;2.13;;;14.70;99.90;;;;;;4991054;28;20788;-59
2022/05/26 07:16:23;;;;;;;20.90;2.22;;;14.70;99.90;;;;;;5003315;28;20183;-59
2022/05/26 07:18:50;;;;;;;14.20;2.67;;;14.80;99.90;;;;;;5005996;28;20503;-60
2022/05/26 07:21:16;;;;;;;16.33;2.17;;;14.70;99.90;;;;;;4998788;28;20226;-59
2022/05/26 07:23:42;;;;;;;12.48;2.08;;;14.80;99.90;;;;;;4995596;28;20638;-60
2022/05/26 07:26:10;;;;;;;17.00;2.22;;;14.90;99.90;;;;;;5005644;28;20182;-59
2022/05/26 07:28:38;;;;;;;16.10;2.53;;;14.90;99.90;;;;;;4997736;28;20182;-60
2022/05/26 07:31:04;;;;;;;12.68;1.98;;;15.00;99.90;;;;;;4997713;28;20182;-60
2022/05/26 07:33:29;;;;;;;16.88;2.83;;;15.00;99.90;;;;;;4998023;28;20175;-60
2022/05/26 07:35:55;;;;;;;22.45;3.13;;;15.00;99.90;;;;;;5000582;28;20689;-59
2022/05/26 07:41:18;;;;;;;18.73;2.88;;;15.00;99.90;;;;;;4991392;28;20512;-64
2022/05/26 07:43:48;;;;;;;11.10;2.30;;;15.10;99.90;;;;;;4999003;28;20178;-64
2022/05/26 07:46:17;;;;;;;17.80;2.38;;;15.20;99.90;;;;;;5007102;28;20175;-64
2022/05/26 07:48:42;;;;;;;17.40;2.75;;;15.30;99.90;;;;;;4990936;28;20228;-65
2022/05/26 07:51:08;;;;;;;26.80;3.78;;;15.30;99.90;;;;;;5001005;28;20270;-60
2022/05/26 07:53:34;;;;;;;13.80;2.40;;;15.50;99.90;;;;;;5008692;28;20178;-62
2022/05/26 07:56:02;;;;;;;15.25;2.25;;;15.50;99.90;;;;;;5001265;28;20749;-61
2022/05/26 07:58:28;;;;;;;16.73;2.30;;;15.60;99.90;;;;;;4993803;28;20179;-60
2022/05/26 08:00:54;;;;;;;16.27;2.05;;;15.70;99.90;;;;;;4990446;28;20195;-60
2022/05/26 08:03:21;;;;;;;13.43;2.05;;;15.80;99.90;;;;;;5001770;28;20180;-61
2022/05/26 08:05:47;;;;;;;19.60;2.15;;;15.80;99.90;;;;;;4998016;28;20297;-61
2022/05/26 08:08:13;;;;;;;14.32;2.28;;;15.80;99.90;;;;;;4991772;28;20187;-63
2022/05/26 08:10:39;;;;;;;16.35;2.15;;;16.70;99.90;;;;;;4991738;28;20177;-63
2022/05/26 08:13:06;;;;;;;14.30;2.28;;;15.80;99.90;;;;;;4991916;28;20242;-63
2022/05/26 08:15:32;;;;;;;17.52;2.60;;;15.90;99.90;;;;;;4997566;28;20255;-62
2022/05/26 08:17:58;;;;;;;19.17;2.35;;;15.90;99.90;;;;;;4994447;28;20171;-62
2022/05/26 08:20:25;;;;;;;11.40;2.35;;;15.90;99.90;;;;;;4994044;28;20334;-63
2022/05/26 08:22:51;;;;;;;15.30;2.20;;;15.90;99.90;;;;;;4994107;28;20179;-63
2022/05/26 08:25:17;;;;;;;16.02;2.25;;;16.00;99.90;;;;;;4993995;28;20180;-63
2022/05/26 08:27:42;;;;;;;19.15;2.80;;;16.10;99.90;;;;;;4994120;28;20174;-63
2022/05/26 08:30:09;;;;;;;16.45;2.65;;;16.10;99.90;;;;;;4993859;28;20567;-62
2022/05/26 08:32:34;;;;;;;24.25;2.85;;;16.20;99.90;;;;;;4998413;28;20178;-63
2022/05/26 08:35:05;;;;;;;24.42;3.17;;;16.50;99.90;;;;;;5006329;28;20693;-63
2022/05/26 08:37:31;;;;;;;16.73;3.15;;;16.80;99.90;;;;;;5012864;28;20595;-63
2022/05/26 08:39:56;;;;;;;14.07;2.28;;;16.90;99.90;;;;;;5009472;28;20182;-61
2022/05/26 08:42:31;;;;;;;18.55;3.83;;;17.20;99.90;;;;;;5000468;28;20231;-61
2022/05/26 08:45:23;;;;;;;11.88;2.50;;;17.20;99.90;;;;;;4996753;28;20833;-60
2022/05/26 08:47:51;;;;;;;23.48;3.33;;;17.50;99.90;;;;;;4990769;28;20274;-55
2022/05/26 08:50:24;;;;;;;14.20;3.00;;;17.50;99.90;;;;;;4993805;28;20187;-59
2022/05/26 08:53:09;;;;;;;15.93;2.88;;;17.70;99.90;;;;;;4992440;28;20202;-58
2022/05/26 08:55:46;;;;;;;15.98;2.42;;;17.70;99.90;;;;;;4993157;28;20226;-57
2022/05/26 08:58:17;;;;;;;18.23;3.05;;;17.50;99.90;;;;;;4993543;28;20238;-57
2022/05/26 09:00:45;;;;;;;15.07;2.80;;;17.40;99.90;;;;;;4996024;28;20175;-57
2022/05/26 09:03:31;;;;;;;14.85;2.30;;;17.30;99.90;;;;;;5004719;28;20183;-57
2022/05/26 09:06:23;;;;;;;15.38;2.70;;;17.10;99.90;;;;;;5001251;28;20210;-57
2022/05/26 09:14:29;;;;;;;24.13;3.00;;;17.40;99.90;;;;;;4993085;28;20198;-56
2022/05/26 09:17:04;;;;;;;15.90;2.55;;;17.30;99.90;;;;;;5001505;28;20177;-57
2022/05/26 09:19:46;;;;;;;10.52;2.60;;;17.20;99.90;;;;;;5010203;28;20535;-57
2022/05/26 09:22:24;;;;;;;13.80;2.50;;;17.10;99.90;;;;;;4992368;28;20694;-57
2022/05/26 09:24:50;;;;;;;15.68;3.30;;;17.10;99.90;;;;;;4992782;28;20623;-57
2022/05/26 09:27:27;;;;;;;19.23;3.53;;;17.20;99.90;;;;;;4992117;28;20441;-57
2022/05/26 09:29:53;;;;;;;17.67;3.50;;;17.30;99.90;;;;;;4992685;28;20171;-58
2022/05/26 09:32:28;;;;;;;14.60;2.40;;;17.60;99.90;;;;;;4992559;28;20650;-58
2022/05/26 09:35:30;;;;;;;14.30;2.13;;;17.80;99.90;;;;;;4992374;28;20717;-59
2022/05/26 09:38:05;;;;;;;14.43;2.30;;;17.90;99.90;;;;;;4961581;28;20618;-59
2022/05/26 09:40:37;;;;;;;15.07;2.53;;;18.20;99.90;;;;;;4992626;28;20656;-59
2022/05/26 09:43:06;;;;;;;16.92;2.45;;;18.20;99.90;;;;;;4991869;28;20538;-59
2022/05/26 09:45:45;;;;;;;16.70;3.22;;;18.50;99.90;;;;;;4993079;28;20649;-60
2022/05/26 09:48:24;;;;;;;12.38;2.67;;;18.50;99.90;;;;;;4992773;28;20181;-59
2022/05/26 09:51:13;;;;;;;13.32;2.45;;;18.50;99.90;;;;;;4992531;28;20170;-56
2022/05/26 09:53:44;;;;;;;16.05;2.72;;;18.20;99.90;;;;;;4991694;28;20309;-59
2022/05/26 09:56:28;;;;;;;14.00;2.63;;;18.10;99.90;;;;;;4990427;28;20290;-59
2022/05/26 09:58:54;;;;;;;18.85;2.35;;;18.10;99.90;;;;;;4990466;28;20285;-58
2022/05/26 10:01:26;;;;;;;14.18;2.75;;;18.20;99.90;;;;;;4990695;28;20404;-58
2022/05/26 10:04:10;;;;;;;22.10;3.40;;;18.20;99.90;;;;;;4990488;28;20187;-58
2022/05/26 10:06:48;;;;;;;13.52;2.35;;;18.50;99.90;;;;;;4989028;28;20159;-57
2022/05/26 10:09:33;;;;;;;17.42;2.30;;;18.50;99.90;;;;;;4991366;28;20179;-59
2022/05/26 10:12:11;;;;;;;18.52;2.92;;;18.60;99.90;;;;;;4992302;28;20174;-60
2022/05/26 10:15:03;;;;;;;19.33;2.38;;;18.50;99.90;;;;;;4992021;28;20206;-58
2022/05/26 10:17:54;;;;;;;17.42;3.17;;;18.40;99.90;;;;;;4992153;28;20174;-59
2022/05/26 10:20:39;;;;;;;21.90;3.05;;;18.50;99.90;;;;;;4992021;28;20223;-59
2022/05/26 10:23:19;;;;;;;17.40;2.70;;;18.90;99.90;;;;;;4992014;28;20171;-58
2022/05/26 10:26:01;;;;;;;10.90;2.13;;;18.90;99.90;;;;;;4991988;28;20183;-58
2022/05/26 10:28:50;;;;;;;18.30;3.03;;;19.50;99.90;;;;;;4991911;28;20178;-58
2022/05/26 10:31:25;;;;;;;17.20;2.65;;;19.80;99.90;;;;;;4991746;28;20183;-59
2022/05/26 10:34:02;;;;;;;13.82;2.17;;;19.90;99.90;;;;;;4991756;28;20254;-57
2022/05/26 10:36:37;;;;;;;11.40;1.75;;;19.70;99.90;;;;;;4991879;28;20206;-58
2022/05/26 10:39:10;;;;;;;11.32;1.70;;;19.30;99.90;;;;;;4990961;28;20236;-58
2022/05/26 10:42:01;;;;;;;13.95;1.98;;;19.10;99.90;;;;;;4991592;28;20186;-58
2022/05/26 10:44:48;;;;;;;13.10;1.98;;;18.80;99.90;;;;;;4991630;28;20203;-58
2022/05/26 10:47:19;;;;;;;15.20;2.40;;;18.80;99.90;;;;;;4991622;28;20262;-58
2022/05/26 10:49:52;;;;;;;10.43;1.92;;;19.20;99.90;;;;;;4991672;28;20237;-58
2022/05/26 10:52:34;;;;;;;12.95;2.45;;;19.40;99.90;;;;;;4991633;28;20171;-58
2022/05/26 10:55:10;;;;;;;12.65;2.10;;;19.70;99.90;;;;;;4991672;28;20207;-58
2022/05/26 10:57:54;;;;;;;13.85;2.53;;;19.90;99.90;;;;;;4991599;28;20178;-58
2022/05/26 11:00:24;;;;;;;9.77;1.80;;;21.70;99.90;;;;;;4991539;28;20171;-58
2022/05/26 11:03:07;;;;;;;9.32;1.90;;;19.90;99.90;;;;;;4991821;28;20174;-58
2022/05/26 11:05:52;;;;;;;6.10;1.05;;;20.20;99.90;;;;;;4991434;28;20641;-59
2022/05/26 11:08:31;;;;;;;11.25;2.22;;;19.90;99.90;;;;;;4991384;28;20167;-58
2022/05/26 11:11:23;;;;;;;9.13;1.80;;;20.10;99.90;;;;;;4991314;28;20215;-57
2022/05/26 11:14:08;;;;;;;9.10;2.00;;;20.30;99.90;;;;;;4983270;28;20257;-58
2022/05/26 11:19:42;;;;;;;7.90;1.35;;;20.60;99.90;;;;;;4991076;28;20259;-58
2022/05/26 11:22:11;;;;;;;8.43;1.30;;;20.50;99.90;;;;;;4991141;28;20210;-58
2022/05/26 11:24:37;;;;;;;5.20;1.10;;;20.60;99.90;;;;;;4991047;28;20646;-58
2022/05/26 11:27:31;;;;;;;5.68;1.17;;;20.70;99.90;;;;;;4991186;28;20266;-59
2022/05/26 11:30:02;;;;;;;4.18;1.23;;;20.80;99.90;;;;;;4990565;28;20198;-58
2022/05/26 11:38:26;;;;;;;8.38;1.40;;;21.70;99.90;;;;;;4991102;28;20313;-58
2022/05/26 11:41:00;;;;;;;7.75;1.40;;;21.50;99.90;;;;;;4991192;28;20638;-58
2022/05/26 11:44:06;;;;;;;4.57;1.17;;;21.30;99.90;;;;;;4991079;28;20187;-59
2022/05/26 11:46:50;;;;;;;5.30;1.20;;;21.20;99.90;;;;;;4989896;28;20183;-58
2022/05/26 11:49:43;;;;;;;5.13;1.20;;;21.30;99.90;;;;;;4991042;28;20222;-58
2022/05/26 11:52:47;;;;;;;7.32;1.25;;;21.10;99.90;;;;;;4994767;28;20254;-58
2022/05/26 11:55:18;;;;;;;11.13;2.05;;;21.60;99.90;;;;;;4994490;28;20217;-59
2022/05/26 11:57:44;;;;;;;10.63;1.75;;;22.20;99.90;;;;;;4994767;28;20633;-58
2022/05/26 12:00:30;;;;;;;11.98;1.60;;;23.50;99.90;;;;;;4994557;28;20179;-59
2022/05/26 12:03:23;;;;;;;11.75;2.08;;;22.40;99.90;;;;;;4984171;28;20208;-58
2022/05/26 12:06:04;;;;;;;8.50;1.52;;;22.00;99.90;;;;;;4994753;28;20182;-58
2022/05/26 12:08:37;;;;;;;8.75;1.80;;;21.70;99.90;;;;;;4994550;28;20171;-59
2022/05/26 12:11:09;;;;;;;9.60;1.77;;;21.60;99.90;;;;;;4994398;28;20306;-58
2022/05/26 12:13:37;;;;;;;10.45;2.00;;;20.90;99.90;;;;;;4994207;28;20202;-57
2022/05/26 12:16:11;;;;;;;11.68;1.75;;;20.60;99.90;;;;;;4996893;28;20215;-58
2022/05/26 12:18:39;;;;;;;6.18;1.50;;;21.00;99.90;;;;;;5006796;28;20185;-59
2022/05/26 12:21:17;;;;;;;7.68;1.63;;;21.50;99.90;;;;;;5000977;28;20222;-59
2022/05/26 12:23:43;;;;;;;17.75;2.35;;;21.00;99.90;;;;;;5013631;28;20170;-57
2022/05/26 12:26:29;;;;;;;11.13;1.52;;;20.70;99.90;;;;;;5013581;28;20171;-57
2022/05/26 12:29:16;;;;;;;8.43;1.20;;;20.50;99.90;;;;;;5013720;28;20170;-59
2022/05/26 12:32:09;;;;;;;5.65;1.55;;;20.00;99.90;;;;;;5013550;28;20175;-59
2022/05/26 12:34:49;;;;;;;3.97;1.10;;;19.60;99.90;;;;;;5006961;28;20226;-58
2022/05/26 12:37:27;;;;;;;8.77;1.10;;;19.80;99.90;;;;;;5013088;28;20393;-57
2022/05/26 12:40:27;;;;;;;8.32;1.80;;;19.70;99.90;;;;;;5010499;28;20166;-59
2022/05/26 12:43:21;;;;;;;8.35;1.13;;;20.40;99.90;;;;;;5012831;28;20186;-58
2022/05/26 12:45:53;;;;;;;4.60;1.55;;;21.00;99.90;;;;;;5012300;28;20174;-59
2022/05/26 12:48:40;;;;;;;4.28;1.33;;;21.00;99.90;;;;;;4993876;28;20271;-58
2022/05/26 12:51:12;;;;;;;5.60;1.30;;;20.50;99.90;;;;;;4993516;28;20183;-58
2022/05/26 12:53:45;;;;;;;4.75;1.10;;;20.50;99.90;;;;;;4993790;28;20167;-58
2022/05/26 12:56:19;;;;;;;2.63;0.90;;;20.00;99.90;;;;;;4993629;28;20211;-57
2022/05/26 12:58:57;;;;;;;7.35;1.10;;;19.30;99.90;;;;;;5009341;28;20259;-57
2022/05/26 13:01:24;;;;;;;11.73;1.20;;;19.30;99.90;;;;;;5001216;28;20539;-57
2022/05/26 13:04:05;;;;;;;3.53;0.93;;;19.60;99.90;;;;;;4993388;28;20206;-58
2022/05/26 13:06:36;;;;;;;7.15;1.10;;;19.60;99.90;;;;;;4997253;28;20174;-58
2022/05/26 13:09:24;;;;;;;6.28;1.35;;;19.70;99.90;;;;;;5004827;28;20185;-56
2022/05/26 13:12:01;;;;;;;14.25;1.55;;;21.20;99.90;;;;;;5012845;28;20167;-58
2022/05/26 13:14:38;;;;;;;8.13;1.10;;;21.10;99.90;;;;;;5012947;28;20857;-58
2022/05/26 13:17:04;;;;;;;11.13;1.83;;;21.90;99.90;;;;;;5012983;28;20180;-58
2022/05/26 13:19:30;;;;;;;12.13;1.92;;;22.30;99.90;;;;;;5012612;28;20664;-58
2022/05/26 13:21:57;;;;;;;9.35;1.83;;;22.20;99.90;;;;;;5012617;28;20222;-58
2022/05/26 13:24:31;;;;;;;10.52;1.70;;;21.50;99.90;;;;;;5012807;28;20198;-58
2022/05/26 13:27:03;;;;;;;9.43;1.77;;;20.90;99.90;;;;;;5011432;28;20554;-58
2022/05/26 13:29:32;;;;;;;15.95;2.25;;;20.30;99.90;;;;;;5012666;28;20602;-59
2022/05/26 13:34:52;;;;;;;15.35;2.03;;;20.70;99.90;;;;;;4992959;28;20610;-57
2022/05/26 13:37:31;;;;;;;10.90;1.88;;;19.80;99.90;;;;;;5009020;28;20205;-58
2022/05/26 13:40:08;;;;;;;13.00;2.50;;;19.80;99.90;;;;;;5010675;28;20174;-57
2022/05/26 13:42:36;;;;;;;11.05;2.25;;;19.60;99.90;;;;;;5010743;28;20601;-58
2022/05/26 13:45:05;;;;;;;10.20;2.30;;;19.10;99.90;;;;;;5011015;28;20626;-58